Time;durP1;ratioP1;P1;durP2;ratioP2;P2;SDS_P1;SDS_P2;PMS_P1;PMS_P2;Temp;Humidity;BMP_temperature;BMP_pressure;BME280_temperature;BME280_humidity;BME280_pressure;Samples;Min_cycle;Max_cycle;Signal;HPM_P1;HPM_P2
2022/08/01 00:01:42;;;;;;;5.53;2.88;;;20.80;57.00;;;17.04;77.60;95698.97;4989705;28;20233;-46
2022/08/01 00:04:11;;;;;;;4.15;2.60;;;20.80;57.20;;;17.02;78.27;95704.66;5005630;28;20516;-49
2022/08/01 00:06:46;;;;;;;4.70;3.05;;;20.80;57.40;;;17.05;77.60;95700.56;4990219;28;20033;-48
2022/08/01 00:09:12;;;;;;;6.80;2.75;;;20.80;57.50;;;17.04;78.21;95696.28;4989138;28;20104;-48
2022/08/01 00:11:38;;;;;;;3.95;2.80;;;20.80;57.50;;;17.08;77.70;95697.28;4989746;28;20022;-45
2022/08/01 00:14:12;;;;;;;3.30;2.72;;;20.80;57.60;;;17.14;77.92;95701.44;4990478;28;20032;-46
2022/08/01 00:16:40;;;;;;;4.03;3.10;;;20.80;57.70;;;17.13;77.59;95699.84;4978043;28;20188;-49
2022/08/01 00:19:09;;;;;;;2.97;2.63;;;20.80;57.70;;;17.16;78.32;95704.63;4958070;28;20054;-49
2022/08/01 00:21:35;;;;;;;3.42;2.70;;;20.80;57.80;;;17.20;78.07;95699.41;4969088;28;20023;-52
2022/08/01 00:24:01;;;;;;;4.93;3.13;;;20.90;57.80;;;17.22;77.63;95694.53;4992744;28;20463;-50
2022/08/01 00:26:29;;;;;;;3.30;2.53;;;20.90;57.90;;;17.24;77.61;95703.91;4988813;28;20038;-48
2022/08/01 00:28:55;;;;;;;4.50;2.70;;;20.90;57.90;;;17.28;77.74;95704.88;4988871;28;20026;-49
2022/08/01 00:31:22;;;;;;;3.97;3.35;;;20.90;57.90;;;17.31;77.46;95704.28;5004939;28;20033;-47
2022/08/01 00:33:57;;;;;;;3.10;2.80;;;20.90;57.90;;;17.34;77.50;95700.97;4993975;28;20349;-49
2022/08/01 00:36:25;;;;;;;3.17;2.60;;;21.00;58.10;;;17.37;76.99;95696.88;4992568;28;20029;-46
2022/08/01 00:38:51;;;;;;;4.50;3.13;;;21.00;58.00;;;17.40;76.50;95706.25;4992625;28;20025;-46
2022/08/01 00:41:17;;;;;;;5.45;3.00;;;21.00;57.90;;;17.42;76.45;95704.81;5008054;28;20042;-45
2022/08/01 00:43:44;;;;;;;4.13;3.00;;;21.00;57.90;;;17.45;76.66;95703.44;4978204;28;20044;-46
2022/08/01 00:46:12;;;;;;;5.20;2.90;;;21.10;57.90;;;17.46;76.94;95700.44;4989203;28;20127;-47
2022/08/01 00:48:42;;;;;;;3.42;2.80;;;21.10;58.00;;;17.51;77.36;95704.91;4989027;28;20058;-48
2022/08/01 00:51:08;;;;;;;4.28;2.78;;;21.10;58.00;;;17.52;77.18;95709.22;4996544;28;20033;-46
2022/08/01 00:53:41;;;;;;;3.30;3.00;;;21.20;58.10;;;17.51;77.21;95705.69;5008745;28;20013;-45
2022/08/01 00:56:08;;;;;;;4.72;2.88;;;21.20;58.20;;;17.54;77.36;95704.28;5008288;28;20052;-47
2022/08/01 00:58:57;;;;;;;3.38;2.60;;;21.20;58.00;;;17.52;77.64;95701.91;4992243;28;20613;-46
2022/08/01 01:01:26;;;;;;;4.40;2.63;;;21.20;58.20;;;17.56;78.66;95710.97;5008153;28;20029;-48
2022/08/01 01:03:53;;;;;;;3.15;2.78;;;21.30;58.30;;;17.56;78.57;95704.78;5008233;28;20388;-48
2022/08/01 01:06:37;;;;;;;3.20;2.90;;;21.20;58.30;;;17.60;77.37;95713.84;4993400;28;20385;-47
2022/08/01 01:09:37;;;;;;;3.75;3.03;;;21.20;58.40;;;17.63;77.47;95713.22;5008590;28;20025;-46
2022/08/01 01:12:16;;;;;;;5.50;3.38;;;21.30;58.40;;;17.63;77.42;95710.53;4992952;28;20092;-47
2022/08/01 01:15:06;;;;;;;4.18;2.80;;;21.30;58.40;;;17.67;77.68;95710.72;5008252;28;20022;-49
2022/08/01 01:18:25;;;;;;;4.05;2.90;;;21.30;58.40;;;17.64;77.44;95714.81;4993621;28;20032;-52
2022/08/01 01:21:26;;;;;;;3.40;3.10;;;21.30;58.40;;;17.60;77.87;95713.84;5006103;28;20432;-46
2022/08/01 01:25:03;;;;;;;4.07;2.70;;;21.30;58.40;;;17.60;77.65;95711.16;4992600;28;20136;-48
2022/08/01 01:28:24;;;;;;;3.58;2.78;;;21.30;58.20;;;17.57;77.52;95712.56;4991836;28;20561;-49
2022/08/01 01:30:59;;;;;;;5.63;3.30;;;21.20;58.30;;;17.53;78.02;95716.19;5004609;28;20022;-48
2022/08/01 01:33:31;;;;;;;4.57;2.95;;;21.30;58.50;;;17.49;78.24;95716.00;5007930;28;20477;-47
2022/08/01 01:36:09;;;;;;;5.15;3.28;;;21.20;58.50;;;17.44;78.67;95710.72;5007509;28;20026;-47
2022/08/01 01:39:01;;;;;;;4.68;3.03;;;21.20;58.60;;;17.41;77.99;95715.91;4991681;28;20065;-47
2022/08/01 01:41:33;;;;;;;3.92;3.40;;;21.20;58.60;;;17.38;78.26;95714.63;5004871;28;20053;-46
2022/08/01 01:44:05;;;;;;;3.65;3.08;;;21.10;58.60;;;17.33;78.02;95714.75;4973935;28;20022;-46
2022/08/01 01:46:36;;;;;;;4.80;3.15;;;21.10;58.60;;;17.27;78.27;95708.69;4956362;28;20041;-48
2022/08/01 01:49:04;;;;;;;3.92;3.15;;;21.10;58.60;;;17.22;79.01;95708.00;4988606;28;20358;-49
2022/08/01 01:51:32;;;;;;;4.57;3.13;;;21.00;58.70;;;17.16;78.65;95711.91;4972869;28;20113;-48
2022/08/01 01:54:04;;;;;;;3.70;3.10;;;21.00;58.80;;;17.13;79.54;95709.81;5005362;28;20025;-46
2022/08/01 01:56:32;;;;;;;7.28;3.58;;;21.00;59.00;;;17.09;80.20;95707.72;5007328;28;20361;-45
2022/08/01 01:59:04;;;;;;;3.92;2.80;;;20.90;59.10;;;17.05;79.45;95706.75;5007448;28;20022;-48
2022/08/01 02:01:35;;;;;;;6.60;3.40;;;20.90;59.30;;;17.00;79.87;95711.44;5006856;28;20029;-45
2022/08/01 02:04:08;;;;;;;4.07;3.00;;;20.80;59.30;;;16.93;79.88;95709.16;5007513;28;20049;-46
2022/08/01 02:06:50;;;;;;;3.80;3.15;;;20.80;59.20;;;16.85;79.14;95713.34;5007093;28;20017;-46
2022/08/01 02:09:21;;;;;;;5.28;2.97;;;20.70;59.20;;;16.77;78.42;95713.28;5006790;28;20057;-48
2022/08/01 02:11:50;;;;;;;4.65;3.25;;;20.60;59.10;;;16.68;78.92;95713.16;5006573;28;20032;-52
2022/08/01 02:14:19;;;;;;;4.20;3.10;;;20.60;59.20;;;16.61;81.17;95715.44;5007265;28;20112;-51
2022/08/01 02:16:50;;;;;;;5.47;3.08;;;20.50;59.40;;;16.55;80.66;95714.75;5006999;28;20026;-47
2022/08/01 02:19:22;;;;;;;3.85;3.17;;;20.50;59.50;;;16.50;80.27;95711.34;5007009;28;20022;-45
2022/08/01 02:22:37;;;;;;;5.97;3.38;;;20.50;59.60;;;16.52;80.75;95709.97;5006362;28;20455;-46
2022/08/01 02:25:48;;;;;;;3.03;2.72;;;20.40;59.50;;;16.55;80.19;95714.75;5007143;28;20416;-47
2022/08/01 02:28:37;;;;;;;3.03;2.70;;;20.30;59.60;;;16.50;80.75;95717.53;5006807;28;20377;-47
2022/08/01 02:31:14;;;;;;;4.78;2.97;;;20.30;59.70;;;16.46;80.69;95729.19;4991351;28;20025;-51
2022/08/01 02:34:08;;;;;;;3.90;2.95;;;20.30;59.70;;;16.42;81.80;95721.72;5006331;28;20034;-47
2022/08/01 02:36:38;;;;;;;3.47;2.70;;;20.30;60.10;;;16.39;80.97;95719.63;5006586;28;20099;-46
2022/08/01 02:39:15;;;;;;;5.57;2.90;;;20.20;59.80;;;16.38;80.51;95723.38;5006628;28;20116;-46
2022/08/01 02:41:55;;;;;;;4.05;2.97;;;20.20;60.00;;;16.36;80.50;95733.66;5005622;28;20069;-51
2022/08/01 02:44:32;;;;;;;7.53;3.17;;;20.20;60.10;;;16.34;80.20;95726.97;4991522;28;20469;-48
2022/08/01 02:47:03;;;;;;;5.63;2.88;;;20.10;60.10;;;16.33;80.40;95731.56;5006260;28;20065;-46
2022/08/01 02:49:48;;;;;;;6.55;3.22;;;20.20;60.20;;;16.30;80.92;95734.03;5006565;28;20392;-50
2022/08/01 02:52:22;;;;;;;4.38;2.97;;;20.10;60.30;;;16.29;80.58;95733.22;5005107;28;20029;-48
2022/08/01 02:54:58;;;;;;;3.47;2.58;;;20.10;60.40;;;16.25;81.60;95726.06;4990654;28;20025;-48
2022/08/01 02:57:27;;;;;;;3.47;2.60;;;20.10;60.30;;;16.26;81.10;95725.75;5006304;28;20473;-46
2022/08/01 02:59:58;;;;;;;3.50;2.90;;;20.10;60.30;;;16.26;81.22;95725.75;5006283;28;20042;-48
2022/08/01 03:02:28;;;;;;;3.70;2.88;;;20.10;60.40;;;16.26;81.24;95727.66;5005775;28;20022;-47
2022/08/01 03:04:58;;;;;;;5.60;3.17;;;20.10;60.40;;;16.29;81.28;95724.38;5006388;28;20026;-47
2022/08/01 03:07:27;;;;;;;6.90;4.22;;;20.10;60.50;;;16.22;82.08;95721.28;5005939;28;20057;-46
2022/08/01 03:09:59;;;;;;;6.90;3.20;;;20.10;60.60;;;16.21;81.67;95717.00;4991280;28;20458;-45
2022/08/01 03:12:33;;;;;;;3.83;3.42;;;20.00;60.50;;;16.19;81.98;95726.16;4989726;28;20496;-45
2022/08/01 03:15:04;;;;;;;4.55;3.03;;;20.00;60.80;;;16.15;81.91;95719.00;5006068;28;20036;-45
2022/08/01 03:17:31;;;;;;;4.97;3.40;;;20.00;60.80;;;16.10;82.64;95737.88;4990140;28;20107;-46
2022/08/01 03:20:04;;;;;;;5.95;3.42;;;19.90;60.80;;;16.08;82.26;95727.44;5005469;28;20034;-46
2022/08/01 03:22:33;;;;;;;6.55;3.10;;;19.90;61.00;;;16.05;82.45;95719.97;5005784;28;20029;-46
2022/08/01 03:25:06;;;;;;;3.10;2.80;;;19.90;61.00;;;16.01;82.08;95715.47;4989501;28;20049;-46
2022/08/01 03:27:37;;;;;;;4.95;3.22;;;19.90;61.10;;;16.01;82.43;95721.63;4991070;28;20501;-45
2022/08/01 03:30:10;;;;;;;3.38;3.08;;;19.80;61.20;;;16.00;82.24;95732.69;5005410;28;20040;-45
2022/08/01 03:32:45;;;;;;;5.53;3.40;;;19.80;61.20;;;15.96;82.43;95727.13;4990565;28;20091;-49
2022/08/01 03:35:11;;;;;;;5.88;3.42;;;19.80;61.20;;;15.94;82.78;95726.59;4990351;28;20033;-46
2022/08/01 03:37:54;;;;;;;4.22;3.40;;;19.80;61.20;;;15.92;82.83;95731.50;5005800;28;20026;-45
2022/08/01 03:40:28;;;;;;;6.68;3.40;;;19.80;61.60;;;15.90;82.85;95723.72;5005103;28;20081;-45
2022/08/01 03:43:05;;;;;;;5.18;3.13;;;19.80;61.50;;;15.86;83.02;95728.09;4996522;28;20117;-45
2022/08/01 03:45:39;;;;;;;3.85;3.30;;;19.80;61.60;;;15.87;83.18;95732.34;4970271;28;20039;-45
2022/08/01 03:48:17;;;;;;;5.32;3.30;;;19.80;61.70;;;15.90;82.93;95739.03;4986033;28;20505;-46
2022/08/01 03:50:52;;;;;;;3.78;3.47;;;19.80;61.80;;;15.90;82.85;95728.28;4969343;28;20034;-48
2022/08/01 03:53:32;;;;;;;13.13;3.60;;;19.80;61.90;;;15.88;82.92;95725.88;4953826;28;20022;-45
2022/08/01 03:56:02;;;;;;;3.75;3.08;;;19.70;61.90;;;15.88;82.67;95731.25;4971440;28;20036;-46
2022/08/01 03:58:31;;;;;;;6.07;3.72;;;19.70;61.80;;;15.88;83.20;95723.19;4986164;28;20481;-46
2022/08/01 04:01:02;;;;;;;4.18;3.78;;;19.70;61.90;;;15.88;83.18;95725.88;4993622;28;20495;-45
2022/08/01 04:03:29;;;;;;;6.30;3.22;;;19.70;62.00;;;15.87;83.10;95726.19;5005493;28;20018;-45
2022/08/01 04:06:07;;;;;;;7.22;3.83;;;19.70;61.80;;;15.84;83.89;95729.47;4989127;28;20063;-45
2022/08/01 04:08:38;;;;;;;7.32;3.85;;;19.70;62.10;;;15.84;83.78;95726.78;5009418;28;20468;-45
2022/08/01 04:11:04;;;;;;;4.93;3.55;;;19.70;62.10;;;15.83;83.64;95727.88;5009301;28;20096;-45
2022/08/01 04:13:32;;;;;;;6.43;3.50;;;19.70;62.00;;;15.85;83.51;95728.38;4994913;28;20071;-46
2022/08/01 04:15:59;;;;;;;6.05;3.97;;;19.70;62.10;;;15.86;83.50;95729.97;4993681;28;20040;-46
2022/08/01 04:18:27;;;;;;;4.35;3.35;;;19.70;62.10;;;15.90;83.33;95730.97;4993938;28;20021;-46
2022/08/01 04:20:53;;;;;;;5.00;3.38;;;19.70;62.10;;;15.93;83.20;95731.19;4993893;28;20029;-52
2022/08/01 04:23:28;;;;;;;4.47;3.65;;;19.80;62.10;;;15.96;83.25;95735.16;4994077;28;20029;-52
2022/08/01 04:25:57;;;;;;;5.72;4.13;;;19.80;62.30;;;15.96;83.53;95735.97;5009317;28;20128;-46
2022/08/01 04:28:25;;;;;;;3.70;3.33;;;19.80;62.30;;;16.02;83.21;95743.94;4994186;28;20021;-49
2022/08/01 04:30:59;;;;;;;4.13;3.70;;;19.90;62.20;;;16.06;83.12;95742.25;4993462;28;20492;-46
2022/08/01 04:33:50;;;;;;;4.03;3.40;;;19.90;62.20;;;16.11;82.53;95742.19;5008972;28;20140;-49
2022/08/01 04:36:24;;;;;;;5.78;3.10;;;20.00;62.20;;;16.16;82.76;95745.56;5008998;28;20029;-49
2022/08/01 04:39:01;;;;;;;3.95;3.40;;;20.00;62.10;;;16.22;82.77;95742.78;5009030;28;20104;-47
2022/08/01 04:41:31;;;;;;;6.88;3.58;;;20.10;62.20;;;16.28;82.21;95746.97;4992530;28;20049;-45
2022/08/01 04:44:02;;;;;;;4.25;3.25;;;20.20;62.00;;;16.35;81.84;95753.53;4991779;28;20025;-45
2022/08/01 04:46:39;;;;;;;4.15;3.28;;;20.30;61.90;;;16.45;81.63;95755.25;4974418;28;20053;-44
2022/08/01 04:49:11;;;;;;;3.70;3.40;;;20.40;61.90;;;16.58;81.21;95756.38;4989138;28;20081;-45
2022/08/01 04:51:52;;;;;;;8.32;3.60;;;20.50;61.70;;;16.70;80.86;95758.56;4988972;28;20428;-45
2022/08/01 04:54:36;;;;;;;5.32;3.60;;;20.60;61.60;;;16.82;80.80;95756.19;4989147;28;20030;-45
2022/08/01 04:57:07;;;;;;;4.97;3.60;;;20.70;61.30;;;17.07;80.10;95762.94;4974196;28;20030;-49
2022/08/01 04:59:43;;;;;;;5.63;3.30;;;20.90;61.20;;;17.25;79.30;95758.53;4972874;28;20044;-49
2022/08/01 05:02:17;;;;;;;6.10;3.22;;;21.10;61.00;;;17.42;79.07;95764.06;4973260;28;20393;-46
2022/08/01 05:04:49;;;;;;;4.75;3.50;;;21.20;60.80;;;17.65;79.71;95772.19;5001678;28;20491;-45
2022/08/01 05:07:16;;;;;;;4.50;3.28;;;21.40;60.70;;;17.76;78.42;95771.63;5008437;28;20436;-48
2022/08/01 05:09:51;;;;;;;4.90;3.10;;;21.50;60.40;;;17.84;77.80;95767.47;4993195;28;20040;-46
2022/08/01 05:12:17;;;;;;;6.13;3.20;;;21.70;60.30;;;17.90;77.29;95771.63;4993276;28;20127;-47
2022/08/01 05:14:46;;;;;;;6.65;3.53;;;21.70;59.90;;;18.06;77.51;95774.75;5008149;28;20050;-46
2022/08/01 05:17:16;;;;;;;3.78;3.42;;;21.90;59.80;;;18.34;76.61;95775.38;4991545;28;20030;-47
2022/08/01 05:19:42;;;;;;;4.20;3.70;;;22.10;59.60;;;18.57;75.82;95770.72;4993049;28;20036;-49
2022/08/01 05:22:12;;;;;;;6.30;3.33;;;22.20;59.30;;;18.75;75.41;95773.53;5007748;28;20469;-44
2022/08/01 05:24:40;;;;;;;8.05;3.65;;;22.40;59.20;;;18.79;74.90;95774.50;5008039;28;20021;-45
2022/08/01 05:27:09;;;;;;;3.65;3.30;;;22.50;59.00;;;18.97;74.39;95768.06;5007986;28;20503;-45
2022/08/01 05:29:35;;;;;;;3.97;3.25;;;22.70;58.80;;;19.22;72.89;95769.22;4991770;28;20055;-48
2022/08/01 05:32:05;;;;;;;4.35;3.17;;;22.80;58.40;;;19.48;71.92;95771.16;4992536;28;20022;-49
2022/08/01 05:34:38;;;;;;;4.13;3.40;;;23.00;58.20;;;19.83;71.68;95780.09;4993111;28;20037;-49
2022/08/01 05:37:04;;;;;;;4.75;3.10;;;23.30;58.00;;;20.11;70.13;95777.84;4993118;28;20026;-45
2022/08/01 05:39:30;;;;;;;5.10;3.33;;;23.50;57.60;;;20.20;69.76;95775.13;4948084;28;26645;-48
2022/08/01 05:41:56;;;;;;;4.93;3.30;;;23.60;57.40;;;20.16;69.25;95777.69;4986288;28;20408;-48
2022/08/01 05:44:22;;;;;;;6.68;3.17;;;23.70;57.00;;;20.11;69.10;95784.06;4972051;28;20075;-47
2022/08/01 05:46:48;;;;;;;4.28;3.15;;;23.80;56.90;;;20.13;68.81;95772.94;4973008;28;20065;-48
2022/08/01 05:49:13;;;;;;;5.07;3.42;;;23.90;56.50;;;20.42;68.30;95782.25;4988120;28;20034;-46
2022/08/01 05:51:39;;;;;;;4.00;3.17;;;24.10;56.10;;;20.72;66.86;95775.81;4971461;28;20117;-45
2022/08/01 05:54:08;;;;;;;4.15;3.17;;;24.40;55.80;;;21.08;66.68;95777.25;4987810;28;20028;-46
2022/08/01 05:56:34;;;;;;;5.80;2.88;;;24.70;55.60;;;21.50;64.91;95785.47;4972988;28;20033;-47
2022/08/01 05:58:59;;;;;;;7.82;3.42;;;25.00;55.20;;;21.80;63.70;95774.56;4988097;28;20386;-47
2022/08/01 06:01:25;;;;;;;4.85;3.35;;;25.30;54.70;;;22.14;63.01;95778.88;4972254;28;20132;-49
2022/08/01 06:03:54;;;;;;;7.07;3.45;;;25.60;54.30;;;22.43;60.92;95779.91;4973238;28;20029;-47
2022/08/01 06:06:31;;;;;;;7.72;3.92;;;25.90;53.70;;;22.81;60.09;95777.72;4973056;28;20048;-49
2022/08/01 06:08:57;;;;;;;6.30;4.40;;;26.30;53.10;;;23.05;58.52;95784.31;4972951;28;20014;-46
2022/08/01 06:11:23;;;;;;;5.93;3.20;;;26.70;52.50;;;23.20;57.81;95775.50;4972499;28;20026;-48
2022/08/01 06:13:49;;;;;;;6.50;3.42;;;26.90;51.90;;;23.14;57.76;95773.34;4987867;28;20420;-45
2022/08/01 06:16:26;;;;;;;7.95;3.13;;;27.00;51.30;;;23.02;56.68;95776.84;4987575;28;20025;-45
2022/08/01 06:18:52;;;;;;;3.05;2.85;;;27.10;50.60;;;22.94;57.15;95780.47;4972944;28;20018;-49
2022/08/01 06:21:21;;;;;;;5.88;3.30;;;27.20;50.40;;;;;;4972233;28;20046;-49
2022/08/01 06:23:50;;;;;;;3.85;3.17;;;27.40;49.90;;;23.24;56.88;95786.47;4971643;28;20038;-45
2022/08/01 06:26:20;;;;;;;5.13;3.17;;;27.50;49.50;;;23.24;56.72;95781.03;4972609;28;20022;-48
2022/08/01 06:28:51;;;;;;;3.38;2.83;;;27.50;49.20;;;23.44;55.87;95782.84;4987081;28;20429;-46
2022/08/01 06:31:26;;;;;;;4.93;3.03;;;27.70;48.80;;;23.81;54.59;95776.53;4971813;28;20022;-51
2022/08/01 06:33:52;;;;;;;3.58;3.25;;;28.10;48.30;;;24.28;53.44;95779.41;4972409;28;20053;-50
2022/08/01 06:36:25;;;;;;;3.60;3.30;;;28.50;48.60;;;24.69;51.13;95771.94;4970376;28;20476;-48
2022/08/01 06:38:54;;;;;;;4.93;3.15;;;28.80;47.20;;;24.79;49.88;95776.88;4986824;28;20029;-46
2022/08/01 06:41:31;;;;;;;4.07;3.05;;;29.10;46.50;;;24.99;49.70;95776.97;4970518;28;20112;-48
2022/08/01 06:43:57;;;;;;;4.22;3.30;;;29.40;45.70;;;25.26;49.55;95778.00;4970694;28;20118;-49
2022/08/01 06:46:25;;;;;;;4.60;2.92;;;29.70;45.30;;;25.41;48.65;95770.94;4970612;28;20117;-45
2022/08/01 06:48:54;;;;;;;3.50;3.17;;;29.80;44.70;;;25.73;48.62;95779.81;4955182;28;20032;-47
2022/08/01 06:51:20;;;;;;;3.50;3.10;;;30.10;44.20;;;25.88;47.02;95781.75;4971872;28;20420;-49
2022/08/01 06:53:49;;;;;;;4.88;3.10;;;30.40;43.70;;;26.24;45.01;95772.34;4987119;28;20034;-47
2022/08/01 06:56:21;;;;;;;4.90;3.33;;;30.70;42.70;;;26.67;45.99;95775.06;4972057;28;20022;-46
2022/08/01 06:58:48;;;;;;;4.10;2.65;;;31.10;42.50;;;26.91;44.04;95776.66;4986501;28;20509;-49
2022/08/01 07:01:23;;;;;;;3.50;3.20;;;31.50;42.00;;;27.15;42.65;95775.53;4971340;28;20504;-46
2022/08/01 07:03:55;;;;;;;6.78;3.33;;;31.80;40.80;;;27.43;41.34;95778.69;4971684;28;20026;-47
2022/08/01 07:06:25;;;;;;;3.30;3.00;;;32.10;40.00;;;27.59;40.35;95772.28;4971735;28;20500;-46
2022/08/01 07:08:57;;;;;;;3.42;3.13;;;32.30;39.40;;;27.63;40.93;95770.38;4986748;28;20377;-46
2022/08/01 07:11:24;;;;;;;5.80;3.50;;;32.50;38.70;;;27.68;39.88;95775.53;4971076;28;20481;-48
2022/08/01 07:14:00;;;;;;;4.53;3.60;;;32.60;38.30;;;27.98;39.16;95769.28;4971535;28;20030;-49
2022/08/01 07:16:25;;;;;;;3.90;3.50;;;32.80;37.40;;;28.05;38.52;95763.91;4986446;28;20125;-48
2022/08/01 07:19:04;;;;;;;3.88;3.47;;;33.00;37.00;;;28.33;39.41;95769.69;4970280;28;20121;-46
2022/08/01 07:21:33;;;;;;;3.90;3.60;;;33.30;36.50;;;28.45;38.33;95765.91;4971078;28;20095;-46
2022/08/01 07:23:59;;;;;;;4.43;3.42;;;33.50;36.00;;;28.73;39.25;95770.13;4971319;28;20465;-46
2022/08/01 07:26:26;;;;;;;3.58;3.28;;;33.80;36.10;;;28.97;36.48;95768.75;4971495;28;20042;-49
2022/08/01 07:28:55;;;;;;;4.63;4.07;;;34.00;35.10;;;29.25;36.51;95765.50;4985987;28;20414;-48
2022/08/01 07:31:26;;;;;;;4.63;3.90;;;34.40;34.40;;;29.59;36.18;95766.09;4970921;28;20064;-46
2022/08/01 07:33:52;;;;;;;3.72;3.42;;;34.60;33.90;;;29.83;35.34;95761.94;4978761;28;20042;-50
2022/08/01 07:36:18;;;;;;;4.03;3.17;;;34.80;33.60;;;30.07;34.76;95767.94;4985934;28;20113;-50
2022/08/01 07:38:48;;;;;;;3.53;3.22;;;35.10;33.10;;;30.04;34.78;95768.69;4971296;28;20026;-48
2022/08/01 07:41:15;;;;;;;3.88;3.58;;;35.30;32.60;;;30.15;35.00;95764.81;4970206;28;20034;-46
2022/08/01 07:43:59;;;;;;;6.13;3.45;;;35.50;32.30;;;30.22;34.52;95755.84;4985787;28;20030;-50
2022/08/01 07:46:25;;;;;;;3.90;3.60;;;35.70;31.80;;;30.37;34.29;95765.72;4969889;28;20034;-46
2022/08/01 07:48:51;;;;;;;3.83;3.50;;;35.90;31.60;;;30.57;34.71;95765.34;4985881;28;20033;-49
2022/08/01 07:51:23;;;;;;;3.78;3.20;;;36.10;31.30;;;30.65;33.94;95759.50;4969384;28;20029;-49
2022/08/01 07:53:49;;;;;;;3.30;3.10;;;36.30;30.70;;;31.06;33.97;95758.38;4971050;28;20030;-47
2022/08/01 07:56:26;;;;;;;6.43;3.45;;;36.50;30.70;;;31.07;32.79;95751.69;4970848;28;20030;-45
2022/08/01 07:59:22;;;;;;;3.58;3.28;;;36.70;30.20;;;31.30;33.92;95751.25;4971020;28;20060;-48
2022/08/01 08:01:50;;;;;;;4.43;3.25;;;37.00;30.00;;;31.61;32.32;95752.41;4970423;28;20116;-50
2022/08/01 08:04:22;;;;;;;5.18;3.63;;;37.20;29.80;;;31.61;32.07;95749.66;4985977;28;20031;-46
2022/08/01 08:06:48;;;;;;;4.57;3.70;;;37.40;29.30;;;31.70;32.59;95738.25;4970887;28;20038;-49
2022/08/01 08:09:15;;;;;;;4.35;4.00;;;37.50;29.20;;;31.88;31.89;95746.44;4985980;28;20478;-48
2022/08/01 08:11:44;;;;;;;3.83;3.50;;;37.80;29.00;;;32.15;31.68;95742.00;4970218;28;20393;-46
2022/08/01 08:14:22;;;;;;;3.90;3.53;;;38.00;28.60;;;32.40;31.35;95739.13;4985804;28;20022;-46
2022/08/01 08:16:52;;;;;;;4.15;3.85;;;38.20;28.50;;;32.60;31.29;95747.72;4970677;28;20393;-46
2022/08/01 08:19:18;;;;;;;3.97;3.58;;;38.40;28.20;;;32.67;30.46;95744.13;4968388;28;20070;-48
2022/08/01 08:21:52;;;;;;;4.05;3.75;;;38.60;28.00;;;32.57;30.92;95734.72;4963921;28;20117;-47
2022/08/01 08:24:22;;;;;;;5.90;4.70;;;38.80;27.90;;;32.75;30.46;95740.13;4969811;28;20053;-46
2022/08/01 08:26:57;;;;;;;5.80;3.40;;;39.00;27.60;;;32.68;32.76;95745.69;4991416;28;20116;-46
2022/08/01 08:29:26;;;;;;;3.55;3.25;;;39.10;27.70;;;32.49;30.00;95738.72;4967094;28;20026;-49
2022/08/01 08:32:00;;;;;;;3.65;3.35;;;39.10;27.10;;;32.45;30.12;95733.22;4983128;28;20022;-49
2022/08/01 08:34:28;;;;;;;5.25;3.40;;;39.20;26.80;;;32.48;30.51;95729.66;4969547;28;20381;-50
2022/08/01 08:36:56;;;;;;;4.13;3.75;;;39.20;26.70;;;32.84;30.32;95731.38;4985677;28;20466;-48
2022/08/01 08:39:29;;;;;;;3.97;3.67;;;39.30;26.70;;;33.01;29.69;95730.50;4985464;28;20057;-52
2022/08/01 08:42:01;;;;;;;3.75;3.50;;;39.40;26.40;;;32.89;29.45;95726.22;4985093;28;20108;-52
2022/08/01 08:44:36;;;;;;;3.85;3.47;;;39.60;26.20;;;32.95;29.22;95735.63;4968591;28;20548;-49
2022/08/01 08:47:05;;;;;;;4.20;3.85;;;39.70;26.00;;;32.77;29.94;95728.69;4966365;28;20118;-49
2022/08/01 08:49:32;;;;;;;4.75;3.65;;;39.80;26.00;;;33.00;29.98;95726.19;4968136;28;20026;-48
2022/08/01 08:52:03;;;;;;;3.85;3.55;;;39.90;25.90;;;33.45;30.14;95736.41;4981424;28;20050;-47
2022/08/01 08:54:37;;;;;;;8.48;3.53;;;40.00;25.90;;;33.32;29.00;95717.59;4970832;28;20575;-51
2022/08/01 08:57:05;;;;;;;5.28;3.95;;;40.20;25.60;;;33.71;28.82;95719.16;4971649;28;20026;-51
2022/08/01 08:59:31;;;;;;;4.10;3.78;;;40.30;25.50;;;34.03;28.57;95727.09;4968593;28;20407;-47
2022/08/01 09:02:00;;;;;;;3.90;3.22;;;40.50;25.40;;;33.55;28.51;95730.78;4968748;28;20022;-48
2022/08/01 09:04:30;;;;;;;3.78;3.45;;;40.70;25.20;;;33.43;28.99;95733.25;4975031;28;20134;-50
2022/08/01 09:06:56;;;;;;;4.97;3.25;;;40.60;24.90;;;33.72;29.29;95729.03;4987421;28;20061;-50
2022/08/01 09:09:23;;;;;;;3.47;3.28;;;40.70;25.00;;;33.99;28.38;95733.84;4986356;28;20472;-51
2022/08/01 09:11:54;;;;;;;4.53;3.40;;;40.80;24.90;;;34.14;28.35;95735.25;4971629;28;20030;-48
2022/08/01 09:14:30;;;;;;;5.13;3.92;;;40.80;24.80;;;34.16;27.68;95732.06;4985345;28;20458;-47
2022/08/01 09:17:12;;;;;;;5.75;3.42;;;40.90;24.60;;;34.56;26.84;95737.88;4963894;28;20121;-51
2022/08/01 09:19:53;;;;;;;3.47;3.17;;;41.10;24.60;;;34.35;26.95;95738.94;4987579;28;20401;-52
2022/08/01 09:22:24;;;;;;;4.03;3.63;;;41.10;24.20;;;33.78;26.68;95732.13;4972493;28;20033;-50
2022/08/01 09:25:33;;;;;;;4.10;3.80;;;41.10;24.00;;;33.85;26.95;95734.81;4988680;28;20156;-50
2022/08/01 09:28:10;;;;;;;3.80;3.53;;;41.00;23.90;;;33.98;27.20;95735.84;4985555;28;20038;-47
2022/08/01 09:30:39;;;;;;;3.47;3.28;;;41.10;23.90;;;34.46;26.77;95734.81;4988350;28;20489;-47
2022/08/01 09:33:06;;;;;;;3.83;3.42;;;41.10;23.80;;;34.81;26.66;95727.22;4973140;28;20572;-52
2022/08/01 09:35:37;;;;;;;4.68;3.50;;;41.20;23.90;;;35.07;26.32;95722.91;4988635;28;20026;-51
2022/08/01 09:38:30;;;;;;;3.92;3.60;;;41.30;23.70;;;34.71;26.38;95726.19;4972465;28;20026;-52
2022/08/01 09:41:01;;;;;;;3.97;3.65;;;41.60;23.80;;;34.63;26.42;95727.50;4978110;28;20048;-46
2022/08/01 09:43:31;;;;;;;5.13;3.50;;;41.60;23.40;;;34.83;27.08;95726.81;4991111;28;20103;-47
2022/08/01 09:46:09;;;;;;;3.50;3.20;;;41.70;23.50;;;35.24;25.80;95721.00;4973856;28;20686;-48
2022/08/01 09:48:36;;;;;;;4.32;3.95;;;41.90;23.40;;;35.00;27.01;95717.44;4987473;28;20038;-50
2022/08/01 09:51:03;;;;;;;3.85;3.55;;;41.90;23.30;;;34.62;27.54;95725.94;4983420;28;20180;-52
2022/08/01 09:53:48;;;;;;;4.50;3.80;;;41.90;23.20;;;35.05;26.73;95718.97;4993039;28;20389;-50
2022/08/01 09:56:14;;;;;;;7.57;4.30;;;41.90;23.30;;;35.00;27.34;95720.19;4985856;28;20113;-47
2022/08/01 09:58:59;;;;;;;3.92;3.63;;;41.90;23.30;;;35.15;26.12;95712.47;4972535;28;20040;-49
2022/08/01 10:01:27;;;;;;;4.30;4.00;;;42.00;23.30;;;35.20;26.24;95709.22;4960907;28;20084;-50
2022/08/01 10:04:11;;;;;;;4.88;4.35;;;42.00;23.10;;;35.46;25.62;95713.09;4988284;28;20053;-48
2022/08/01 10:06:42;;;;;;;4.38;3.97;;;42.20;23.20;;;35.66;25.43;95713.13;4971328;28;20150;-52
2022/08/01 10:09:10;;;;;;;4.30;4.00;;;42.30;23.00;;;35.84;24.98;95704.47;4987817;28;20046;-49
2022/08/01 10:11:38;;;;;;;3.78;3.47;;;42.40;22.80;;;36.07;24.48;95703.63;4972955;28;20092;-50
2022/08/01 10:14:06;;;;;;;3.90;3.45;;;42.50;22.70;;;36.13;25.14;95694.41;4987839;28;20018;-51
2022/08/01 10:16:38;;;;;;;4.03;3.72;;;42.50;23.00;;;36.12;24.84;95697.59;4987901;28;20076;-51
2022/08/01 10:19:10;;;;;;;3.92;3.63;;;42.70;22.40;;;36.60;24.42;95704.47;4971525;28;20024;-49
2022/08/01 10:21:39;;;;;;;4.53;3.70;;;42.90;22.40;;;36.23;24.04;95694.56;4986524;28;20034;-48
2022/08/01 10:24:13;;;;;;;4.30;4.00;;;43.00;22.10;;;36.01;23.88;95686.72;4954713;28;20031;-48
2022/08/01 10:26:47;;;;;;;4.13;3.83;;;43.20;21.90;;;36.47;24.64;95686.91;4984047;28;20045;-51
2022/08/01 10:29:18;;;;;;;4.40;4.00;;;43.20;22.00;;;35.96;24.67;95675.34;4982202;28;20023;-47
2022/08/01 10:31:48;;;;;;;4.05;3.75;;;43.30;22.00;;;36.11;25.00;95676.63;4982531;28;20457;-47
2022/08/01 10:34:19;;;;;;;4.28;3.88;;;43.30;22.00;;;36.53;24.19;95674.91;4986542;28;20037;-50
2022/08/01 10:36:49;;;;;;;4.03;3.72;;;43.30;21.80;;;36.66;24.08;95665.91;4989753;28;20077;-50
2022/08/01 10:39:21;;;;;;;4.32;3.92;;;43.40;21.90;;;36.63;23.64;95669.53;4991544;28;20563;-46
2022/08/01 10:41:55;;;;;;;3.88;3.58;;;43.40;21.90;;;36.54;24.34;95664.59;4988529;28;20037;-47
2022/08/01 10:44:30;;;;;;;3.88;3.58;;;43.60;21.80;;;36.39;24.33;95655.03;4987063;28;20065;-46